Time;durP1;ratioP1;P1;durP2;ratioP2;P2;SDS_P1;SDS_P2;PMS_P1;PMS_P2;Temp;Humidity;BMP_temperature;BMP_pressure;BME280_temperature;BME280_humidity;BME280_pressure;Samples;Min_cycle;Max_cycle;Signal;HPM_P1;HPM_P2
2021/12/17 00:02:53;;;;;;;32.45;26.38;;;;;;;7.54;93.41;103963.59;5065785;28;20066;-61
2021/12/17 00:04:52;;;;;;;35.95;27.02;;;;;;;7.55;93.15;103958.22;5063323;28;20083;-61
2021/12/17 00:07:19;;;;;;;35.45;26.33;;;;;;;7.54;93.23;103960.94;5067827;28;20395;-61
2021/12/17 00:09:47;;;;;;;34.17;26.15;;;;;;;7.51;93.23;103961.06;5066953;28;20439;-61
2021/12/17 00:12:16;;;;;;;34.63;27.08;;;;;;;7.51;93.72;103958.41;5067747;28;20119;-61
2021/12/17 00:14:44;;;;;;;36.45;25.85;;;;;;;7.48;93.72;103959.44;5066642;28;20111;-61
2021/12/17 00:17:14;;;;;;;34.27;25.87;;;;;;;7.49;93.70;103950.56;5067436;28;20032;-61
2021/12/17 00:49:34;;;;;;;36.28;25.88;;;;;;;7.68;93.50;103948.75;5067248;28;20071;-61
2021/12/17 00:52:01;;;;;;;36.97;27.33;;;;;;;7.68;93.54;103947.88;5067229;28;20545;-61
2021/12/17 00:54:36;;;;;;;32.92;25.05;;;;;;;7.69;93.60;103952.25;5067263;28;20025;-61
2021/12/17 00:57:10;;;;;;;35.13;26.75;;;;;;;7.72;93.90;103954.72;5065768;28;20051;-61
2021/12/17 00:59:36;;;;;;;32.97;25.52;;;;;;;7.69;93.71;103945.16;5066652;28;20021;-61
2021/12/17 01:02:07;;;;;;;34.35;25.00;;;;;;;7.74;93.82;103950.22;5044876;28;20021;-61
2021/12/17 01:04:33;;;;;;;33.47;23.88;;;;;;;7.77;93.82;103950.94;5064469;28;20054;-61
2021/12/17 01:06:59;;;;;;;33.65;24.35;;;;;;;7.77;93.54;103952.72;5064188;28;20036;-60
2021/12/17 01:09:27;;;;;;;31.20;24.02;;;;;;;7.78;93.90;103957.94;5061420;28;20093;-61
2021/12/17 01:11:56;;;;;;;36.72;24.50;;;;;;;7.82;93.47;103941.94;5066778;28;20033;-61
2021/12/17 01:14:22;;;;;;;33.92;25.02;;;;;;;7.84;93.65;103942.72;5059312;28;20032;-61
2021/12/17 01:16:49;;;;;;;34.35;25.67;;;;;;;7.82;93.81;103939.28;5066470;28;20035;-61
2021/12/17 01:22:26;;;;;;;33.00;24.50;;;;;;;7.94;93.90;103931.56;5063840;28;20071;-61
2021/12/17 01:24:51;;;;;;;36.28;25.73;;;;;;;7.97;93.34;103939.34;5065208;28;20787;-61
2021/12/17 01:35:30;;;;;;;38.47;25.80;;;;;;;7.92;93.37;103930.78;5070302;28;20047;-61
2021/12/17 01:39:04;;;;;;;34.60;24.85;;;;;;;7.95;93.71;103925.34;5067929;28;20032;-61
2021/12/17 01:43:27;;;;;;;34.58;24.65;;;;;;;7.98;93.63;103929.63;5069151;28;20048;-61
2021/12/17 01:45:52;;;;;;;42.08;27.17;;;;;;;8.01;93.43;103924.16;5067098;28;20032;-60
2021/12/17 01:48:22;;;;;;;36.42;24.30;;;;;;;7.98;93.82;103932.28;5068480;28;20024;-60
2021/12/17 02:01:27;;;;;;;38.42;26.52;;;;;;;7.98;93.57;103938.41;5067181;28;20510;-61
2021/12/17 02:03:53;;;;;;;38.58;25.75;;;;;;;7.99;93.77;103942.78;5069927;28;20024;-60
2021/12/17 02:06:19;;;;;;;36.05;24.67;;;;;;;8.01;93.56;103938.25;5070023;28;20028;-61
2021/12/17 02:08:46;;;;;;;44.10;27.80;;;;;;;7.99;93.75;103933.97;5069570;28;20059;-61
2021/12/17 02:19:44;;;;;;;41.42;26.65;;;;;;;8.03;93.73;103930.25;5066383;28;20062;-61
2021/12/17 02:22:50;;;;;;;39.80;26.35;;;;;;;8.03;93.98;103928.44;5068185;28;20059;-61
2021/12/17 02:32:57;;;;;;;50.47;29.83;;;;;;;8.05;93.56;103942.47;5068773;28;20411;-60
2021/12/17 02:35:44;;;;;;;60.55;31.30;;;;;;;8.07;93.64;103943.22;5070378;28;20030;-60
2021/12/17 02:38:12;;;;;;;49.05;28.73;;;;;;;8.09;93.82;103948.44;5065987;28;20037;-60
2021/12/17 02:45:48;;;;;;;45.85;27.95;;;;;;;8.08;93.86;103942.31;5068799;28;20127;-61
2021/12/17 02:48:19;;;;;;;46.15;27.42;;;;;;;8.09;93.89;103940.50;5067988;28;20031;-60
2021/12/17 02:50:50;;;;;;;49.90;28.95;;;;;;;8.06;93.52;103943.31;5067688;28;20070;-61
2021/12/17 02:53:18;;;;;;;51.20;28.50;;;;;;;8.10;93.69;103938.75;5068241;28;20024;-61
2021/12/17 02:55:49;;;;;;;49.88;29.42;;;;;;;8.10;93.97;103944.91;5051048;28;20036;-61
2021/12/17 02:58:14;;;;;;;52.45;29.80;;;;;;;8.12;93.99;103945.69;5067618;28;20165;-60
2021/12/17 03:00:43;;;;;;;53.00;30.02;;;;;;;8.13;94.08;103942.09;5069042;28;20412;-60
2021/12/17 03:03:09;;;;;;;60.30;31.20;;;;;;;8.16;94.00;103943.72;5062086;28;20107;-61
2021/12/17 03:05:38;;;;;;;61.15;32.95;;;;;;;8.16;94.11;103935.78;5069147;28;20161;-61
2021/12/17 03:08:05;;;;;;;60.63;33.35;;;;;;;8.18;93.75;103942.72;5062702;28;20399;-61
2021/12/17 03:10:31;;;;;;;58.78;31.63;;;;;;;8.21;93.86;103933.75;5068405;28;20036;-60
2021/12/17 03:13:00;;;;;;;57.83;31.75;;;;;;;8.21;94.06;103937.25;5068568;28;20039;-61
2021/12/17 03:15:47;;;;;;;53.83;30.90;;;;;;;8.19;93.81;103927.69;5067712;28;20111;-61
2021/12/17 03:18:53;;;;;;;50.13;29.77;;;;;;;8.21;93.70;103931.09;5065820;28;20024;-61
2021/12/17 03:23:57;;;;;;;52.17;29.65;;;;;;;8.21;93.98;103939.03;5068568;28;20553;-61
2021/12/17 03:26:25;;;;;;;52.60;30.45;;;;;;;8.19;93.91;103941.78;5067716;28;20032;-61
2021/12/17 03:28:54;;;;;;;47.25;28.70;;;;;;;8.17;94.02;103943.66;5067123;28;20047;-60
2021/12/17 03:31:21;;;;;;;47.85;28.88;;;;;;;8.18;94.04;103952.44;5067202;28;20047;-61
2021/12/17 03:33:50;;;;;;;48.38;29.58;;;;;;;8.16;93.69;103947.22;5071877;28;20420;-61
2021/12/17 03:36:18;;;;;;;47.88;28.77;;;;;;;8.15;93.69;103942.88;5065588;28;20043;-61
2021/12/17 03:38:46;;;;;;;50.63;28.90;;;;;;;8.16;93.69;103951.66;5067438;28;20498;-61
2021/12/17 03:41:19;;;;;;;47.97;27.95;;;;;;;8.18;93.94;103947.16;5067443;28;20066;-61
2021/12/17 03:43:46;;;;;;;49.65;29.17;;;;;;;8.15;93.98;103942.88;5068244;28;20060;-61
2021/12/17 03:46:12;;;;;;;42.03;26.80;;;;;;;8.15;94.06;103932.28;5068085;28;20514;-60
2021/12/17 03:48:39;;;;;;;43.45;26.05;;;;;;;8.14;94.06;103929.72;5066311;28;20024;-60
2021/12/17 03:51:13;;;;;;;39.83;24.63;;;;;;;8.15;93.70;103940.22;5070919;22;20537;-66
2021/12/17 03:53:41;;;;;;;39.03;25.05;;;;;;;8.14;93.72;103937.66;5027972;28;20025;-66
2021/12/17 03:56:07;;;;;;;38.10;25.63;;;;;;;8.13;93.89;103947.38;5026804;28;20128;-65
2021/12/17 03:58:32;;;;;;;36.50;25.10;;;;;;;8.12;93.58;103935.09;5027082;28;20155;-65
2021/12/17 04:00:57;;;;;;;39.25;24.75;;;;;;;8.14;93.51;103946.44;5027939;28;20018;-65
2021/12/17 04:03:23;;;;;;;37.08;24.77;;;;;;;8.15;93.72;103947.31;5027967;28;20021;-65
2021/12/17 04:05:48;;;;;;;37.85;25.23;;;;;;;8.14;93.74;103941.16;5027367;28;20021;-66
2021/12/17 04:08:14;;;;;;;36.95;24.20;;;;;;;8.15;93.82;103945.50;5027963;28;20041;-65
2021/12/17 04:10:46;;;;;;;34.17;24.27;;;;;;;8.12;93.66;103931.59;5028452;28;20391;-65
2021/12/17 04:13:26;;;;;;;36.00;24.08;;;;;;;8.12;93.77;103932.44;5027144;28;20436;-66
2021/12/17 04:16:01;;;;;;;36.25;23.55;;;;;;;8.09;93.99;103943.16;5028596;28;20094;-65
2021/12/17 04:18:27;;;;;;;37.53;23.80;;;;;;;8.10;93.74;103929.00;5026736;28;20029;-65
2021/12/17 04:20:52;;;;;;;35.92;23.98;;;;;;;8.07;93.58;103940.59;5027864;28;20561;-65
2021/12/17 04:23:18;;;;;;;39.40;23.52;;;;;;;8.05;93.95;103931.00;5027634;28;20029;-65
2021/12/17 04:25:44;;;;;;;33.10;22.70;;;;;;;8.08;93.74;103946.75;5026199;28;20075;-65
2021/12/17 04:28:09;;;;;;;31.25;22.02;;;;;;;8.05;93.97;103950.41;5021565;28;20597;-65
2021/12/17 04:30:35;;;;;;;33.38;22.25;;;;;;;8.06;93.79;103945.97;5027989;28;20067;-65
2021/12/17 04:33:00;;;;;;;33.92;22.30;;;;;;;8.05;93.91;103946.91;5026733;28;20017;-66
2021/12/17 04:35:26;;;;;;;34.70;21.73;;;;;;;8.03;93.91;103935.53;5027576;28;20416;-65
2021/12/17 04:37:51;;;;;;;33.08;22.50;;;;;;;8.03;93.57;103943.47;5027102;28;20029;-65
2021/12/17 04:40:19;;;;;;;37.08;22.67;;;;;;;8.01;93.73;103945.34;5027963;28;20030;-65
2021/12/17 04:43:12;;;;;;;35.63;23.20;;;;;;;8.01;93.67;103950.63;5027253;28;20042;-66
2021/12/17 04:45:43;;;;;;;34.85;22.88;;;;;;;8.05;94.21;103950.41;5025982;28;20071;-66
2021/12/17 04:59:07;;;;;;;31.50;21.50;;;;;;;7.96;93.66;103937.66;5025863;28;20048;-66
2021/12/17 05:01:34;;;;;;;31.77;22.45;;;;;;;7.94;93.63;103928.94;5028973;28;20539;-65
2021/12/17 05:03:59;;;;;;;34.05;20.67;;;;;;;7.98;94.07;103935.78;5030498;28;20118;-66
2021/12/17 05:06:29;;;;;;;38.60;21.00;;;;;;;7.98;93.68;103934.91;5031843;28;20108;-65
2021/12/17 05:08:58;;;;;;;;;;;;;;;8.11;93.73;103940.47;5031202;28;20029;-65
2021/12/17 05:18:13;;;;;;;;;;;;;;;8.12;93.68;103944.81;5032695;28;19913;-65
2021/12/17 05:19:49;;;;;;;34.90;21.95;;;;;;;7.92;93.55;103949.31;5031632;28;20048;-65
2021/12/17 05:22:15;;;;;;;34.95;21.42;;;;;;;7.86;93.46;103944.34;5031929;28;20029;-65
2021/12/17 05:24:40;;;;;;;33.53;21.90;;;;;;;7.89;93.92;103940.69;5031902;28;20025;-66
2021/12/17 05:27:06;;;;;;;34.50;21.70;;;;;;;7.89;93.62;103941.53;5032918;28;20044;-66
2021/12/17 05:29:31;;;;;;;32.60;21.83;;;;;;;7.88;93.59;103949.56;5037090;28;20496;-65
2021/12/17 05:31:56;;;;;;;40.58;22.65;;;;;;;7.86;93.99;103949.63;5030837;28;20316;-66
2021/12/17 05:34:22;;;;;;;38.78;23.13;;;;;;;7.85;94.01;103955.00;5031666;28;20401;-65
2021/12/17 05:36:47;;;;;;;36.60;24.92;;;;;;;7.77;94.09;103936.84;5033312;28;20025;-66
2021/12/17 05:39:12;;;;;;;41.75;25.13;;;;;;;7.86;94.21;103954.06;5031243;28;20080;-66
2021/12/17 05:41:38;;;;;;;44.75;24.55;;;;;;;7.86;94.10;103959.38;5031264;28;20034;-66
2021/12/17 05:44:04;;;;;;;46.95;25.08;;;;;;;7.86;94.01;103949.63;5031810;28;20079;-65
2021/12/17 05:49:27;;;;;;;40.25;24.05;;;;;;;7.83;94.26;103944.50;5012834;28;20511;-65
2021/12/17 05:51:54;;;;;;;40.10;25.10;;;;;;;7.90;94.33;103947.69;5031209;28;20041;-65
2021/12/17 05:54:19;;;;;;;42.03;25.63;;;;;;;7.85;94.41;103939.97;5031369;28;20103;-65
2021/12/17 05:56:45;;;;;;;41.72;25.20;;;;;;;7.86;94.23;103951.44;5031496;28;20025;-66
2021/12/17 05:59:10;;;;;;;37.58;24.70;;;;;;;7.86;93.92;103957.56;5030271;28;20061;-66
2021/12/17 06:01:36;;;;;;;38.60;24.70;;;;;;;7.87;94.45;103956.63;5027548;28;20087;-65
2021/12/17 06:04:03;;;;;;;45.90;25.08;;;;;;;7.84;94.25;103959.44;5027222;28;20061;-65
2021/12/17 06:06:37;;;;;;;45.08;25.98;;;;;;;7.83;94.45;103963.03;5030122;28;20072;-66
2021/12/17 06:09:05;;;;;;;43.47;25.73;;;;;;;7.85;94.13;103973.53;5026663;28;20135;-66
2021/12/17 06:11:31;;;;;;;42.95;26.00;;;;;;;7.81;94.38;103961.38;5030258;28;20505;-66
2021/12/17 06:13:56;;;;;;;46.60;27.20;;;;;;;7.83;94.45;103967.47;5027521;28;20030;-65
2021/12/17 06:16:21;;;;;;;41.40;26.15;;;;;;;7.82;94.10;103977.19;5029730;28;20083;-66
2021/12/17 06:18:47;;;;;;;45.42;26.55;;;;;;;7.83;93.98;103965.66;5026878;28;20034;-66
2021/12/17 06:21:12;;;;;;;43.30;26.25;;;;;;;7.82;94.58;103971.88;5030770;28;20083;-66
2021/12/17 06:23:37;;;;;;;40.65;26.00;;;;;;;7.84;93.98;103963.88;5029994;28;20079;-65
2021/12/17 06:26:04;;;;;;;41.92;25.38;;;;;;;7.84;94.49;103971.81;5029696;28;20580;-66
2021/12/17 06:28:30;;;;;;;39.55;25.42;;;;;;;7.84;94.33;103979.75;5029149;28;20029;-65
2021/12/17 06:30:55;;;;;;;43.80;25.50;;;;;;;7.82;94.41;103981.63;5029245;28;20029;-66
2021/12/17 06:33:20;;;;;;;42.25;25.20;;;;;;;7.80;94.76;103984.31;5030160;28;20100;-65
2021/12/17 06:35:46;;;;;;;42.53;25.95;;;;;;;7.78;94.18;103987.03;5023816;28;20041;-65
2021/12/17 06:38:11;;;;;;;42.60;26.38;;;;;;;7.81;94.21;103986.06;5029312;28;20121;-65
2021/12/17 06:40:36;;;;;;;44.35;25.42;;;;;;;7.78;94.61;103989.69;5031304;28;20075;-64
2021/12/17 06:43:02;;;;;;;42.58;25.45;;;;;;;7.81;94.82;103987.84;5036228;28;20030;-65
2021/12/17 06:48:11;;;;;;;44.47;26.25;;;;;;;7.80;94.42;103983.44;5028927;28;20599;-65
2021/12/17 06:57:01;;;;;;;45.35;25.38;;;;;;;7.81;94.47;103974.63;5025841;28;20134;-65
2021/12/17 06:59:11;;;;;;;44.50;24.90;;;;;;;7.82;94.71;103977.19;5025485;28;20084;-66
2021/12/17 07:17:19;;;;;;;47.47;25.95;;;;;;;7.85;94.43;103981.47;5030675;28;20039;-65
2021/12/17 07:22:44;;;;;;;49.80;25.80;;;;;;;7.85;94.84;103982.31;5029760;28;20040;-65
2021/12/17 07:33:06;;;;;;;43.95;24.58;;;;;;;7.86;94.76;103967.31;5029050;28;20413;-66
2021/12/17 07:35:43;;;;;;;50.15;25.38;;;;;;;7.82;94.61;103958.66;5029221;28;20113;-67
2021/12/17 07:40:53;;;;;;;47.55;25.13;;;;;;;7.83;94.67;103963.03;5026573;28;20041;-65
2021/12/17 07:43:26;;;;;;;45.67;24.98;;;;;;;7.83;94.71;103964.81;5028795;28;20029;-66
2021/12/17 07:45:53;;;;;;;46.65;25.00;;;;;;;7.81;94.55;103961.38;5026039;28;20029;-66
2021/12/17 07:48:18;;;;;;;51.30;26.30;;;;;;;7.85;95.12;103981.47;5028474;28;20769;-66
2021/12/17 07:50:44;;;;;;;51.35;25.80;;;;;;;7.83;94.93;103965.66;5024872;28;20144;-66
2021/12/17 07:53:10;;;;;;;53.67;26.77;;;;;;;7.81;94.66;103958.75;5027465;28;20124;-66
2021/12/17 07:55:35;;;;;;;49.40;25.90;;;;;;;7.80;95.04;103968.44;5028523;28;20503;-66
2021/12/17 07:58:01;;;;;;;51.42;26.80;;;;;;;7.83;94.96;103967.47;5028274;28;20108;-66
2021/12/17 08:00:26;;;;;;;50.25;25.20;;;;;;;7.81;94.88;103979.91;5028532;28;20032;-66
2021/12/17 08:02:51;;;;;;;54.28;26.48;;;;;;;7.76;95.01;103966.88;5028661;28;20025;-65
2021/12/17 08:05:18;;;;;;;53.03;25.73;;;;;;;7.80;95.16;103979.00;5028743;28;20119;-65
2021/12/17 08:07:44;;;;;;;55.95;25.92;;;;;;;7.82;94.94;103981.63;5028289;28;20032;-65
2021/12/17 08:10:09;;;;;;;49.78;26.58;;;;;;;7.83;95.16;103983.31;5028733;28;20034;-66
2021/12/17 08:12:35;;;;;;;53.30;26.30;;;;;;;7.85;95.11;103986.75;5028922;28;20032;-66
2021/12/17 08:15:01;;;;;;;52.55;25.85;;;;;;;7.86;95.39;103997.25;5029096;28;20461;-66
2021/12/17 08:25:51;;;;;;;59.28;28.05;;;;;;;7.87;95.22;104006.91;5028079;28;20477;-66
2021/12/17 08:28:17;;;;;;;58.95;27.70;;;;;;;7.87;95.59;104004.25;5025628;28;20551;-66
2021/12/17 08:30:42;;;;;;;63.63;27.90;;;;;;;7.88;95.66;103994.53;5028325;28;20502;-66
2021/12/17 08:33:08;;;;;;;59.95;27.25;;;;;;;7.91;95.69;103997.03;5027548;28;20121;-66
2021/12/17 08:35:35;;;;;;;59.25;28.02;;;;;;;7.92;95.25;103993.44;5027961;28;20458;-66
2021/12/17 08:38:04;;;;;;;61.63;28.70;;;;;;;7.88;95.28;103995.41;5030971;28;20037;-66
2021/12/17 08:40:30;;;;;;;61.35;27.35;;;;;;;7.94;95.64;103986.28;5032057;28;20414;-66
2021/12/17 08:42:56;;;;;;;61.85;27.45;;;;;;;7.93;95.47;103997.81;5031790;28;20021;-66
2021/12/17 08:45:21;;;;;;;59.00;27.80;;;;;;;7.92;95.55;103998.75;5032947;28;20029;-66
2021/12/17 08:47:47;;;;;;;59.15;26.75;;;;;;;7.97;95.89;103997.56;5031567;28;20072;-66
2021/12/17 08:50:14;;;;;;;61.63;28.30;;;;;;;7.98;95.61;104003.72;5032391;28;20024;-67
2021/12/17 08:52:41;;;;;;;61.08;27.30;;;;;;;7.99;95.61;103997.50;5031783;28;20116;-66
2021/12/17 08:55:07;;;;;;;68.93;28.52;;;;;;;7.99;95.50;103994.84;5032724;28;20307;-66
2021/12/17 08:57:32;;;;;;;68.25;28.70;;;;;;;8.01;95.88;103993.84;5032360;28;20021;-66
2021/12/17 09:00:04;;;;;;;64.90;28.35;;;;;;;8.03;95.51;103988.47;5032075;28;20396;-66
2021/12/17 09:02:29;;;;;;;59.58;27.10;;;;;;;8.04;95.67;103990.19;5032376;28;20037;-66
2021/12/17 09:04:54;;;;;;;67.05;28.17;;;;;;;8.04;95.63;103991.03;5030863;28;20034;-65
2021/12/17 09:07:20;;;;;;;67.10;28.40;;;;;;;8.04;96.07;103985.75;5031760;28;20095;-66
2021/12/17 09:09:47;;;;;;;67.10;27.20;;;;;;;8.05;95.79;103994.53;5031998;28;20029;-65
2021/12/17 09:12:12;;;;;;;77.90;33.50;;;;;;;8.05;95.64;103999.84;5031677;28;20021;-65
2021/12/17 09:14:38;;;;;;;64.95;27.30;;;;;;;8.05;95.63;104010.41;5032106;28;20071;-66
2021/12/17 09:17:03;;;;;;;61.45;27.23;;;;;;;8.06;95.80;104022.72;5031656;28;20021;-66
2021/12/17 09:19:28;;;;;;;60.70;26.70;;;;;;;8.06;95.71;104022.72;5031388;28;20052;-65
2021/12/17 09:21:54;;;;;;;61.85;26.27;;;;;;;8.06;96.00;104023.56;5031979;28;20035;-66
2021/12/17 09:24:19;;;;;;;61.47;25.73;;;;;;;8.05;96.06;104024.50;5032029;28;20404;-66
2021/12/17 09:26:44;;;;;;;66.43;26.35;;;;;;;8.05;96.07;104021.00;5031523;28;20076;-66
2021/12/17 09:29:10;;;;;;;64.05;25.95;;;;;;;8.05;96.15;104028.94;5031440;28;20025;-66
2021/12/17 09:31:36;;;;;;;70.82;27.40;;;;;;;8.05;96.14;104031.59;5031234;28;20026;-66
2021/12/17 09:34:02;;;;;;;69.93;27.90;;;;;;;8.05;96.17;104036.88;5031597;28;20101;-65
2021/12/17 09:36:27;;;;;;;72.60;26.27;;;;;;;8.05;95.94;104026.31;5031697;28;20112;-66
2021/12/17 09:38:53;;;;;;;73.28;27.65;;;;;;;8.07;96.11;104025.28;5031467;28;20493;-66
2021/12/17 09:41:23;;;;;;;65.95;26.92;;;;;;;8.07;95.99;104032.38;5031032;28;20228;-66
2021/12/17 09:43:49;;;;;;;62.85;26.27;;;;;;;8.10;95.94;104034.03;5031653;28;20024;-66
2021/12/17 09:46:15;;;;;;;69.57;26.77;;;;;;;8.10;96.15;104034.03;5030829;28;20025;-65
2021/12/17 09:48:41;;;;;;;63.85;25.13;;;;;;;8.14;96.27;104035.59;5030681;28;20034;-66
2021/12/17 09:51:08;;;;;;;64.22;25.83;;;;;;;8.15;96.25;104037.31;5030431;28;20041;-66
2021/12/17 09:53:34;;;;;;;57.05;24.50;;;;;;;8.16;96.59;104047.81;5031077;28;20076;-66
2021/12/17 09:56:01;;;;;;;64.60;24.88;;;;;;;8.19;96.14;104054.75;5031234;28;20029;-65
2021/12/17 09:58:27;;;;;;;60.58;24.77;;;;;;;8.19;96.27;104050.31;5031175;28;20029;-66
2021/12/17 10:00:52;;;;;;;63.88;24.45;;;;;;;8.13;96.38;104041.81;5030874;28;20615;-66
2021/12/17 10:03:19;;;;;;;57.63;22.67;;;;;;;8.20;96.28;104057.31;5030645;28;20265;-66
2021/12/17 10:05:44;;;;;;;58.35;23.08;;;;;;;8.22;96.78;104062.53;5030020;28;20033;-66
2021/12/17 10:08:13;;;;;;;54.95;23.10;;;;;;;8.23;96.56;104066.91;5030758;28;20381;-66
2021/12/17 10:10:41;;;;;;;57.63;22.77;;;;;;;8.24;96.40;104064.19;5030599;28;20021;-66
2021/12/17 10:13:20;;;;;;;51.60;21.85;;;;;;;8.26;96.62;104070.25;5031026;28;20493;-66
2021/12/17 10:15:49;;;;;;;52.70;21.52;;;;;;;8.27;96.69;104071.97;5031111;28;20033;-66
2021/12/17 10:18:16;;;;;;;46.85;20.05;;;;;;;8.27;96.55;104065.81;5030516;28;20029;-66
2021/12/17 10:23:17;;;;;;;47.95;19.75;;;;;;;8.27;96.39;104063.16;5040870;28;20056;-61
2021/12/17 10:25:44;;;;;;;46.13;20.48;;;;;;;8.27;96.04;104063.16;5048353;28;20033;-61
2021/12/17 10:28:11;;;;;;;48.35;20.65;;;;;;;8.28;96.34;104070.16;5036403;28;20477;-61
2021/12/17 10:30:40;;;;;;;49.22;20.60;;;;;;;8.28;96.44;104067.53;5047141;28;20032;-61
2021/12/17 10:33:09;;;;;;;47.88;19.35;;;;;;;8.29;96.11;104067.44;5042478;28;20488;-61
2021/12/17 10:35:38;;;;;;;50.40;19.50;;;;;;;8.30;96.51;104063.84;5024449;28;20048;-61
2021/12/17 10:38:10;;;;;;;52.55;20.85;;;;;;;8.31;96.65;104070.00;5036751;28;20041;-61
2021/12/17 10:40:55;;;;;;;45.55;19.88;;;;;;;8.31;96.35;104060.28;5037670;28;20489;-61
2021/12/17 10:43:26;;;;;;;48.63;19.95;;;;;;;8.30;96.41;104050.63;5030709;28;20036;-61
2021/12/17 10:46:05;;;;;;;50.55;20.00;;;;;;;8.33;96.12;104058.44;5032118;28;20037;-61
2021/12/17 10:54:17;;;;;;;51.72;20.33;;;;;;;8.35;96.36;104072.47;5042574;28;20152;-61
2021/12/17 10:56:47;;;;;;;50.38;20.52;;;;;;;8.36;96.14;104068.88;5048028;28;20029;-61
2021/12/17 10:59:13;;;;;;;45.88;19.33;;;;;;;8.36;96.39;104073.31;5038761;28;20029;-61
2021/12/17 11:01:45;;;;;;;51.58;19.77;;;;;;;8.37;96.13;104070.59;5037976;28;20025;-61
2021/12/17 11:04:18;;;;;;;51.03;20.45;;;;;;;8.37;96.19;104070.59;5025177;28;20465;-61
2021/12/17 11:06:58;;;;;;;51.95;19.95;;;;;;;8.38;96.54;104072.34;5029538;28;20265;-61
2021/12/17 11:09:53;;;;;;;52.80;20.27;;;;;;;8.42;96.24;104072.19;5030443;28;20032;-61
2021/12/17 11:12:28;;;;;;;47.88;19.15;;;;;;;8.40;96.23;104066.09;5029705;28;20378;-61
2021/12/17 11:15:11;;;;;;;49.42;18.80;;;;;;;8.40;96.40;104066.09;5033511;28;20492;-61
2021/12/17 11:17:37;;;;;;;43.97;17.23;;;;;;;8.43;96.00;104068.59;5039823;28;20132;-62
2021/12/17 11:20:08;;;;;;;36.15;14.63;;;;;;;8.45;96.49;104061.44;5031821;28;20415;-61
2021/12/17 11:22:35;;;;;;;36.90;14.90;;;;;;;8.45;96.47;104066.72;5029517;28;20032;-61
2021/12/17 11:25:01;;;;;;;27.35;12.27;;;;;;;8.43;96.08;104053.56;5029747;28;20031;-61
2021/12/17 11:27:26;;;;;;;27.33;11.27;;;;;;;8.45;96.13;104051.69;5038406;28;20104;-61
2021/12/17 11:29:52;;;;;;;26.13;11.13;;;;;;;8.46;95.90;104058.69;5036568;28;20029;-61
2021/12/17 11:32:19;;;;;;;23.35;10.80;;;;;;;8.47;96.08;104054.25;5029851;28;20034;-61
2021/12/17 11:34:44;;;;;;;30.65;13.15;;;;;;;8.44;95.88;104041.19;5040634;28;20112;-61
2021/12/17 11:37:10;;;;;;;30.77;13.00;;;;;;;8.46;95.91;104039.31;5036125;28;20103;-61
2021/12/17 11:39:41;;;;;;;25.80;11.77;;;;;;;8.48;95.84;104040.06;5029948;28;20033;-61
2021/12/17 11:42:13;;;;;;;25.02;10.73;;;;;;;8.47;95.56;104033.06;5029674;28;20516;-61
2021/12/17 11:44:41;;;;;;;18.15;8.48;;;;;;;8.45;95.53;104035.78;5029253;28;20043;-61
2021/12/17 11:47:11;;;;;;;18.92;8.77;;;;;;;8.48;95.29;104034.78;5036361;28;20031;-61
2021/12/17 11:49:49;;;;;;;21.27;9.60;;;;;;;8.49;95.41;104034.69;5036755;28;20029;-61
2021/12/17 11:52:35;;;;;;;17.17;8.30;;;;;;;8.53;95.50;104030.97;5024560;28;20035;-61
2021/12/17 11:55:25;;;;;;;14.00;6.80;;;;;;;8.56;95.11;104033.44;5013552;28;20457;-61
2021/12/17 11:58:00;;;;;;;16.70;8.25;;;;;;;8.56;95.37;104036.09;5032748;28;20029;-60
2021/12/17 12:00:38;;;;;;;13.40;7.28;;;;;;;8.54;95.06;104035.31;5034295;28;20044;-61
2021/12/17 12:03:16;;;;;;;13.00;7.00;;;;;;;8.55;95.17;104030.88;5028133;28;20033;-61
2021/12/17 12:05:44;;;;;;;15.57;8.82;;;;;;;8.54;95.08;104029.16;5032795;28;20121;-61
2021/12/17 12:08:28;;;;;;;18.45;8.77;;;;;;;8.55;94.55;104030.88;5028733;28;20029;-61
2021/12/17 12:11:10;;;;;;;14.57;7.13;;;;;;;8.53;94.28;104032.75;5025597;28;20151;-61
2021/12/17 12:13:42;;;;;;;10.68;6.55;;;;;;;8.48;94.36;104032.13;5028627;28;20122;-61
2021/12/17 12:16:10;;;;;;;11.60;6.53;;;;;;;8.46;94.20;104029.56;5042943;28;20025;-62
2021/12/17 12:18:49;;;;;;;11.65;5.88;;;;;;;8.41;94.05;104022.78;5030678;28;20102;-61
2021/12/17 12:21:16;;;;;;;10.43;6.47;;;;;;;8.40;94.16;104031.69;5035342;28;20025;-61
2021/12/17 12:23:45;;;;;;;10.05;5.95;;;;;;;8.38;93.97;104035.25;5038235;28;20028;-61
2021/12/17 12:26:14;;;;;;;11.80;6.28;;;;;;;8.36;93.99;104034.44;5042506;28;20522;-61
2021/12/17 12:28:50;;;;;;;9.90;6.00;;;;;;;8.35;94.17;104035.38;5041230;28;20425;-61
2021/12/17 12:31:38;;;;;;;11.07;6.10;;;;;;;8.32;93.59;104040.81;5034629;28;20036;-61
2021/12/17 12:34:14;;;;;;;10.50;6.03;;;;;;;8.32;93.41;104035.50;5025434;28;20598;-61
2021/12/17 12:37:09;;;;;;;10.85;6.20;;;;;;;8.27;93.58;104026.94;5032533;28;20457;-61
2021/12/17 12:39:43;;;;;;;10.75;5.50;;;;;;;8.23;93.35;104022.75;5027110;28;20119;-61
2021/12/17 12:42:25;;;;;;;8.77;5.47;;;;;;;8.24;93.40;104029.75;5035406;28;20053;-61
2021/12/17 12:44:51;;;;;;;8.73;5.38;;;;;;;8.23;93.41;104037.78;5035065;28;20053;-61
2021/12/17 12:47:20;;;;;;;10.05;4.88;;;;;;;8.21;93.16;104048.44;5039095;28;20025;-61
2021/12/17 12:49:51;;;;;;;10.40;5.28;;;;;;;8.21;93.42;104043.16;5040573;28;20025;-61
2021/12/17 12:52:27;;;;;;;11.35;6.68;;;;;;;8.16;93.38;104024.00;5031720;28;20036;-61
2021/12/17 12:55:20;;;;;;;10.23;5.90;;;;;;;8.19;93.28;104029.13;5032674;28;20029;-61
2021/12/17 12:57:53;;;;;;;11.25;6.03;;;;;;;8.08;93.08;104031.44;5030460;28;20037;-60
2021/12/17 13:00:21;;;;;;;8.52;5.13;;;;;;;8.10;93.19;104029.59;5031625;28;20040;-61
2021/12/17 13:02:50;;;;;;;10.48;6.22;;;;;;;8.08;93.16;104024.34;5044738;28;20025;-61
2021/12/17 13:05:16;;;;;;;9.45;5.38;;;;;;;8.08;93.29;104023.50;5036629;28;20397;-61
2021/12/17 13:07:49;;;;;;;9.63;6.10;;;;;;;8.05;93.11;104029.81;5028389;28;20103;-61
2021/12/17 13:10:34;;;;;;;10.50;6.13;;;;;;;8.05;93.36;104031.59;5034116;28;20350;-61
2021/12/17 13:14:17;;;;;;;10.90;6.95;;;;;;;8.00;93.18;104028.31;5041037;28;20037;-61
2021/12/17 13:16:15;;;;;;;13.40;7.75;;;;;;;7.95;92.99;104031.19;5023628;28;20176;-61
2021/12/17 13:24:13;;;;;;;11.88;7.13;;;;;;;7.89;93.46;104020.91;5047023;28;20044;-61
2021/12/17 13:27:09;;;;;;;10.35;6.90;;;;;;;7.92;93.24;104019.91;5048290;28;20434;-61
2021/12/17 13:29:38;;;;;;;10.63;7.00;;;;;;;7.88;93.40;104024.50;5047886;28;20021;-61
2021/12/17 13:32:09;;;;;;;12.90;7.70;;;;;;;7.90;93.46;104011.19;5044113;28;20032;-61
2021/12/17 13:34:38;;;;;;;10.63;7.13;;;;;;;7.92;93.92;104020.78;5041452;28;20578;-61
2021/12/17 13:37:33;;;;;;;9.52;6.63;;;;;;;7.94;93.75;104018.03;5036422;28;20120;-61
2021/12/17 13:40:07;;;;;;;10.57;6.82;;;;;;;7.92;93.47;104023.41;5033361;28;20036;-61
2021/12/17 13:42:36;;;;;;;15.43;8.18;;;;;;;7.92;93.83;104031.34;5044088;28;20028;-61
2021/12/17 13:45:10;;;;;;;8.23;5.80;;;;;;;7.92;93.70;104026.06;5044159;28;20113;-61
2021/12/17 13:47:37;;;;;;;7.53;4.65;;;;;;;7.90;93.72;104021.78;5039447;28;20504;-62
2021/12/17 13:50:30;;;;;;;6.45;4.47;;;;;;;7.93;93.54;104027.78;5031970;28;20041;-61
2021/12/17 13:53:01;;;;;;;6.53;5.13;;;;;;;7.90;93.34;104025.28;5027106;28;20026;-61
2021/12/17 13:55:41;;;;;;;9.05;5.95;;;;;;;7.89;93.20;104020.06;5031229;28;20036;-61
2021/12/17 13:58:13;;;;;;;;;;;;;;;7.97;93.30;104017.88;5032006;28;20025;-61
2021/12/17 14:00:46;;;;;;;7.95;5.43;;;;;;;7.91;93.24;104019.06;5031035;28;19924;-61
2021/12/17 14:03:14;;;;;;;5.90;4.70;;;;;;;7.89;93.38;104022.72;5035541;28;20566;-61
2021/12/17 14:05:40;;;;;;;5.65;4.75;;;;;;;7.89;93.39;104014.78;5029956;28;20029;-61
2021/12/17 14:08:11;;;;;;;5.88;4.43;;;;;;;7.90;93.62;104008.53;5037827;28;20033;-61
2021/12/17 14:10:37;;;;;;;6.85;4.72;;;;;;;7.89;93.22;104014.78;5034676;28;20078;-61